sensor_id;sensor_type;location;lat;lon;timestamp;pressure;altitude;pressure_sealevel;temperature;humidity
78373;BME280;67656;52.074;4.758;2023-04-24T00:03:26;99956.41;;;8.04;100.00
78373;BME280;67656;52.074;4.758;2023-04-24T00:08:27;99965.00;;;8.09;100.00
78373;BME280;67656;52.074;4.758;2023-04-24T00:13:27;99968.53;;;8.08;100.00
78373;BME280;67656;52.074;4.758;2023-04-24T00:18:27;99971.13;;;8.10;100.00
78373;BME280;67656;52.074;4.758;2023-04-24T00:23:28;99975.34;;;8.14;100.00
78373;BME280;67656;52.074;4.758;2023-04-24T00:28:28;99988.41;;;8.17;100.00
78373;BME280;67656;52.074;4.758;2023-04-24T00:33:28;99977.09;;;8.15;100.00
78373;BME280;67656;52.074;4.758;2023-04-24T00:38:29;99979.63;;;8.18;100.00
78373;BME280;67656;52.074;4.758;2023-04-24T00:43:29;99985.78;;;8.17;100.00
78373;BME280;67656;52.074;4.758;2023-04-24T00:48:30;99979.63;;;8.18;100.00
78373;BME280;67656;52.074;4.758;2023-04-24T00:53:30;99989.28;;;8.18;100.00
78373;BME280;67656;52.074;4.758;2023-04-24T00:58:31;99986.59;;;8.19;100.00
78373;BME280;67656;52.074;4.758;2023-04-24T01:03:33;99985.78;;;8.17;100.00
78373;BME280;67656;52.074;4.758;2023-04-24T01:08:34;99991.84;;;8.19;100.00
78373;BME280;67656;52.074;4.758;2023-04-24T01:13:34;99985.84;;;8.15;100.00
78373;BME280;67656;52.074;4.758;2023-04-24T01:18:35;99990.22;;;8.15;100.00
78373;BME280;67656;52.074;4.758;2023-04-24T01:23:35;99986.69;;;8.16;100.00
78373;BME280;67656;52.074;4.758;2023-04-24T01:28:35;99990.22;;;8.15;100.00
78373;BME280;67656;52.074;4.758;2023-04-24T01:33:41;99988.63;;;8.11;100.00
78373;BME280;67656;52.074;4.758;2023-04-24T01:38:42;99986.91;;;8.10;100.00
78373;BME280;67656;52.074;4.758;2023-04-24T01:43:42;100000.84;;;8.12;100.00
78373;BME280;67656;52.074;4.758;2023-04-24T01:48:44;99994.81;;;8.08;100.00
78373;BME280;67656;52.074;4.758;2023-04-24T01:53:45;99992.03;;;8.13;100.00
78373;BME280;67656;52.074;4.758;2023-04-24T01:58:46;99993.88;;;8.11;100.00
78373;BME280;67656;52.074;4.758;2023-04-24T02:03:46;99986.97;;;8.07;100.00
78373;BME280;67656;52.074;4.758;2023-04-24T02:08:47;99988.78;;;8.05;100.00
78373;BME280;67656;52.074;4.758;2023-04-24T02:13:47;99985.34;;;8.03;100.00
78373;BME280;67656;52.074;4.758;2023-04-24T02:18:47;99989.75;;;8.02;100.00
78373;BME280;67656;52.074;4.758;2023-04-24T02:23:48;99992.38;;;8.02;100.00
78373;BME280;67656;52.074;4.758;2023-04-24T02:28:48;99990.72;;;7.99;100.00
78373;BME280;67656;52.074;4.758;2023-04-24T02:33:49;99985.59;;;7.95;100.00
78373;BME280;67656;52.074;4.758;2023-04-24T02:38:49;99984.75;;;7.94;100.00
78373;BME280;67656;52.074;4.758;2023-04-24T02:43:49;99991.88;;;7.89;100.00
78373;BME280;67656;52.074;4.758;2023-04-24T02:48:50;99988.22;;;7.95;100.00
78373;BME280;67656;52.074;4.758;2023-04-24T02:53:50;99984.81;;;7.91;100.00
78373;BME280;67656;52.074;4.758;2023-04-24T02:58:50;99980.53;;;7.89;100.00
78373;BME280;67656;52.074;4.758;2023-04-24T03:03:51;99973.41;;;7.92;100.00
78373;BME280;67656;52.074;4.758;2023-04-24T03:08:51;99973.41;;;7.92;100.00
78373;BME280;67656;52.074;4.758;2023-04-24T03:13:51;99969.03;;;7.93;100.00
78373;BME280;67656;52.074;4.758;2023-04-24T03:18:53;99975.34;;;7.87;100.00
78373;BME280;67656;52.074;4.758;2023-04-24T03:23:54;99980.59;;;7.87;100.00
78373;BME280;67656;52.074;4.758;2023-04-24T03:28:55;99973.63;;;7.86;100.00
78373;BME280;67656;52.074;4.758;2023-04-24T03:33:55;99976.41;;;7.80;100.00
78373;BME280;67656;52.074;4.758;2023-04-24T03:38:56;99973.88;;;7.77;100.00
78373;BME280;67656;52.074;4.758;2023-04-24T03:44:00;99983.47;;;7.79;100.00
78373;BME280;67656;52.074;4.758;2023-04-24T03:49:01;99982.78;;;7.73;100.00
78373;BME280;67656;52.074;4.758;2023-04-24T03:54:06;99991.84;;;7.62;100.00
78373;BME280;67656;52.074;4.758;2023-04-24T03:59:10;99995.63;;;7.52;100.00
78373;BME280;67656;52.074;4.758;2023-04-24T04:04:11;99992.69;;;7.63;100.00
78373;BME280;67656;52.074;4.758;2023-04-24T04:09:12;99998.72;;;7.66;100.00
78373;BME280;67656;52.074;4.758;2023-04-24T04:14:12;100012.66;;;7.68;100.00
78373;BME280;67656;52.074;4.758;2023-04-24T04:19:15;100016.28;;;7.64;100.00
78373;BME280;67656;52.074;4.758;2023-04-24T04:24:16;100026.09;;;7.58;100.00
78373;BME280;67656;52.074;4.758;2023-04-24T04:29:19;100034.03;;;7.56;100.00
78373;BME280;67656;52.074;4.758;2023-04-24T04:34:21;100035.81;;;7.54;100.00
78373;BME280;67656;52.074;4.758;2023-04-24T04:39:22;100044.69;;;7.50;100.00
78373;BME280;67656;52.074;4.758;2023-04-24T04:44:29;100054.56;;;7.42;100.00
78373;BME280;67656;52.074;4.758;2023-04-24T04:49:30;100066.84;;;7.40;100.00
78373;BME280;67656;52.074;4.758;2023-04-24T04:54:31;100067.84;;;7.35;100.00
78373;BME280;67656;52.074;4.758;2023-04-24T04:59:31;100090.59;;;7.36;100.00
78373;BME280;67656;52.074;4.758;2023-04-24T05:04:37;100085.34;;;7.35;100.00
78373;BME280;67656;52.074;4.758;2023-04-24T05:09:38;100097.63;;;7.34;100.00
78373;BME280;67656;52.074;4.758;2023-04-24T05:14:40;100112.88;;;7.53;100.00
78373;BME280;67656;52.074;4.758;2023-04-24T05:19:41;100111.50;;;7.71;100.00
78373;BME280;67656;52.074;4.758;2023-04-24T05:24:42;100136.59;;;7.81;100.00
78373;BME280;67656;52.074;4.758;2023-04-24T05:30:09;100148.31;;;7.69;100.00
78373;BME280;67656;52.074;4.758;2023-04-24T05:35:09;100165.94;;;7.66;100.00
78373;BME280;67656;52.074;4.758;2023-04-24T05:40:10;100191.56;;;7.56;100.00
78373;BME280;67656;52.074;4.758;2023-04-24T05:45:11;100204.00;;;7.49;100.00
78373;BME280;67656;52.074;4.758;2023-04-24T05:50:11;100221.66;;;7.43;100.00
78373;BME280;67656;52.074;4.758;2023-04-24T05:55:12;100238.44;;;7.37;100.00
78373;BME280;67656;52.074;4.758;2023-04-24T06:00:15;100243.88;;;7.29;100.00
78373;BME280;67656;52.074;4.758;2023-04-24T06:05:23;100260.56;;;7.25;100.00
78373;BME280;67656;52.074;4.758;2023-04-24T06:10:27;100279.91;;;7.22;100.00
78373;BME280;67656;52.074;4.758;2023-04-24T06:15:29;100282.47;;;7.26;100.00
78373;BME280;67656;52.074;4.758;2023-04-24T06:20:33;100296.47;;;7.25;100.00
78373;BME280;67656;52.074;4.758;2023-04-24T06:25:35;100306.13;;;7.24;100.00
78373;BME280;67656;52.074;4.758;2023-04-24T06:30:36;100327.03;;;7.29;100.00
78373;BME280;67656;52.074;4.758;2023-04-24T06:35:36;100336.63;;;7.30;100.00
78373;BME280;67656;52.074;4.758;2023-04-24T06:40:37;100344.50;;;7.28;100.00
78373;BME280;67656;52.074;4.758;2023-04-24T06:45:38;100358.53;;;7.27;100.00
78373;BME280;67656;52.074;4.758;2023-04-24T06:50:38;100381.19;;;7.31;100.00
78373;BME280;67656;52.074;4.758;2023-04-24T06:55:38;100399.50;;;7.34;100.00
78373;BME280;67656;52.074;4.758;2023-04-24T07:00:39;100400.34;;;7.36;100.00
78373;BME280;67656;52.074;4.758;2023-04-24T07:05:39;100413.44;;;7.38;100.00
78373;BME280;67656;52.074;4.758;2023-04-24T07:10:39;100406.50;;;7.34;100.00
78373;BME280;67656;52.074;4.758;2023-04-24T07:15:40;100412.63;;;7.34;100.00
78373;BME280;67656;52.074;4.758;2023-04-24T07:20:40;100422.31;;;7.32;100.00
78373;BME280;67656;52.074;4.758;2023-04-24T07:25:40;100453.13;;;7.24;100.00
78373;BME280;67656;52.074;4.758;2023-04-24T07:30:41;100461.03;;;7.21;100.00
78373;BME280;67656;52.074;4.758;2023-04-24T07:35:41;100467.19;;;7.20;100.00
78373;BME280;67656;52.074;4.758;2023-04-24T07:40:43;100481.16;;;7.22;100.00
78373;BME280;67656;52.074;4.758;2023-04-24T07:45:43;100485.41;;;7.26;100.00
78373;BME280;67656;52.074;4.758;2023-04-24T07:50:44;100488.78;;;7.34;100.00
78373;BME280;67656;52.074;4.758;2023-04-24T07:55:45;100500.03;;;7.40;100.00
78373;BME280;67656;52.074;4.758;2023-04-24T08:00:45;100507.81;;;7.44;100.00
78373;BME280;67656;52.074;4.758;2023-04-24T08:05:46;100511.94;;;7.56;100.00
78373;BME280;67656;52.074;4.758;2023-04-24T08:10:46;100525.88;;;7.60;100.00
78373;BME280;67656;52.074;4.758;2023-04-24T08:15:46;100535.44;;;7.64;100.00
78373;BME280;67656;52.074;4.758;2023-04-24T08:20:47;100539.91;;;7.59;100.00
78373;BME280;67656;52.074;4.758;2023-04-24T08:25:48;100559.66;;;7.77;100.00
78373;BME280;67656;52.074;4.758;2023-04-24T08:30:48;100562.38;;;7.74;100.00
78373;BME280;67656;52.074;4.758;2023-04-24T08:35:49;100571.00;;;7.79;100.00
78373;BME280;67656;52.074;4.758;2023-04-24T08:40:50;100575.09;;;7.92;100.00
78373;BME280;67656;52.074;4.758;2023-04-24T08:45:50;100587.31;;;8.36;100.00
78373;BME280;67656;52.074;4.758;2023-04-24T08:50:51;100580.84;;;8.51;100.00
78373;BME280;67656;52.074;4.758;2023-04-24T08:55:54;100586.59;;;8.68;100.00
78373;BME280;67656;52.074;4.758;2023-04-24T09:00:55;100591.97;;;8.24;100.00
78373;BME280;67656;52.074;4.758;2023-04-24T09:05:57;100601.19;;;8.02;100.00
78373;BME280;67656;52.074;4.758;2023-04-24T09:10:57;100605.19;;;8.20;100.00
78373;BME280;67656;52.074;4.758;2023-04-24T09:15:57;100619.41;;;8.11;100.00
78373;BME280;67656;52.074;4.758;2023-04-24T09:21:01;100617.47;;;8.19;100.00
78373;BME280;67656;52.074;4.758;2023-04-24T09:26:02;100634.28;;;8.12;100.00
78373;BME280;67656;52.074;4.758;2023-04-24T09:31:11;100642.91;;;7.75;100.00
78373;BME280;67656;52.074;4.758;2023-04-24T09:36:11;100655.88;;;7.82;100.00
78373;BME280;67656;52.074;4.758;2023-04-24T09:41:13;100642.59;;;7.90;100.00
78373;BME280;67656;52.074;4.758;2023-04-24T09:46:14;100644.94;;;8.45;100.00
78373;BME280;67656;52.074;4.758;2023-04-24T09:51:14;100654.00;;;8.72;100.00
78373;BME280;67656;52.074;4.758;2023-04-24T09:56:14;100657.75;;;9.00;100.00
78373;BME280;67656;52.074;4.758;2023-04-24T10:01:15;100677.84;;;8.65;100.00
78373;BME280;67656;52.074;4.758;2023-04-24T10:06:15;100696.38;;;8.18;100.00
78373;BME280;67656;52.074;4.758;2023-04-24T10:11:16;100708.69;;;8.14;100.00
78373;BME280;67656;52.074;4.758;2023-04-24T10:16:16;100706.50;;;8.79;100.00
78373;BME280;67656;52.074;4.758;2023-04-24T10:21:17;100702.94;;;9.17;100.00
78373;BME280;67656;52.074;4.758;2023-04-24T10:26:19;100698.97;;;9.37;100.00
78373;BME280;67656;52.074;4.758;2023-04-24T10:31:20;100729.69;;;9.71;100.00
78373;BME280;67656;52.074;4.758;2023-04-24T10:36:22;100710.84;;;9.87;100.00
78373;BME280;67656;52.074;4.758;2023-04-24T10:41:25;100712.28;;;9.98;100.00
78373;BME280;67656;52.074;4.758;2023-04-24T10:46:29;100714.00;;;10.31;100.00
78373;BME280;67656;52.074;4.758;2023-04-24T10:51:50;100718.78;;;11.06;100.00
78373;BME280;67656;52.074;4.758;2023-04-24T10:56:51;100719.22;;;10.64;100.00
78373;BME280;67656;52.074;4.758;2023-04-24T11:01:55;100723.34;;;10.11;100.00
78373;BME280;67656;52.074;4.758;2023-04-24T11:06:55;100734.72;;;9.46;100.00
78373;BME280;67656;52.074;4.758;2023-04-24T11:12:14;100758.84;;;8.50;100.00
78373;BME280;67656;52.074;4.758;2023-04-24T11:22:32;100789.19;;;8.21;100.00
78373;BME280;67656;52.074;4.758;2023-04-24T11:27:43;100794.69;;;7.57;100.00
78373;BME280;67656;52.074;4.758;2023-04-24T11:32:48;100794.38;;;7.77;100.00
78373;BME280;67656;52.074;4.758;2023-04-24T11:37:50;100799.28;;;7.97;100.00
78373;BME280;67656;52.074;4.758;2023-04-24T11:42:52;100803.75;;;8.39;100.00
78373;BME280;67656;52.074;4.758;2023-04-24T11:47:52;100791.06;;;8.62;100.00
78373;BME280;67656;52.074;4.758;2023-04-24T11:52:53;100798.22;;;8.55;100.00
78373;BME280;67656;52.074;4.758;2023-04-24T11:57:56;100816.75;;;8.47;100.00
78373;BME280;67656;52.074;4.758;2023-04-24T12:03:10;100823.66;;;8.95;100.00
78373;BME280;67656;52.074;4.758;2023-04-24T12:08:10;100819.56;;;8.83;100.00
78373;BME280;67656;52.074;4.758;2023-04-24T12:13:11;100826.50;;;8.87;100.00
78373;BME280;67656;52.074;4.758;2023-04-24T12:18:13;100833.75;;;8.74;100.00
78373;BME280;67656;52.074;4.758;2023-04-24T12:23:14;100841.75;;;8.70;100.00
78373;BME280;67656;52.074;4.758;2023-04-24T12:28:15;100855.81;;;8.20;100.00
78373;BME280;67656;52.074;4.758;2023-04-24T12:33:19;100860.91;;;8.29;100.00
78373;BME280;67656;52.074;4.758;2023-04-24T12:38:25;100868.16;;;9.09;100.00
78373;BME280;67656;52.074;4.758;2023-04-24T12:43:26;100847.63;;;9.63;100.00
78373;BME280;67656;52.074;4.758;2023-04-24T12:48:27;100852.06;;;10.30;100.00
78373;BME280;67656;52.074;4.758;2023-04-24T12:53:28;100856.75;;;9.84;100.00
78373;BME280;67656;52.074;4.758;2023-04-24T12:58:29;100873.44;;;9.84;100.00
78373;BME280;67656;52.074;4.758;2023-04-24T13:03:29;100865.31;;;9.58;100.00
78373;BME280;67656;52.074;4.758;2023-04-24T13:08:29;100871.75;;;10.17;100.00
78373;BME280;67656;52.074;4.758;2023-04-24T13:13:30;100864.13;;;10.42;100.00
78373;BME280;67656;52.074;4.758;2023-04-24T13:18:30;100864.59;;;10.56;100.00
78373;BME280;67656;52.074;4.758;2023-04-24T13:23:30;100862.88;;;10.55;100.00
78373;BME280;67656;52.074;4.758;2023-04-24T13:28:30;100886.97;;;10.74;100.00
78373;BME280;67656;52.074;4.758;2023-04-24T13:33:31;100881.91;;;10.32;100.00
78373;BME280;67656;52.074;4.758;2023-04-24T13:38:31;100892.94;;;10.50;100.00
78373;BME280;67656;52.074;4.758;2023-04-24T13:43:32;100895.84;;;10.03;100.00
78373;BME280;67656;52.074;4.758;2023-04-24T13:48:32;100882.97;;;9.52;100.00
78373;BME280;67656;52.074;4.758;2023-04-24T13:53:32;100891.59;;;9.97;100.00
78373;BME280;67656;52.074;4.758;2023-04-24T13:58:33;100889.91;;;9.94;100.00
78373;BME280;67656;52.074;4.758;2023-04-24T14:03:33;100903.47;;;9.77;100.00
78373;BME280;67656;52.074;4.758;2023-04-24T14:08:34;100897.47;;;9.71;100.00
78373;BME280;67656;52.074;4.758;2023-04-24T14:13:36;100884.66;;;9.57;100.00
78373;BME280;67656;52.074;4.758;2023-04-24T14:18:37;100917.31;;;9.07;100.00
78373;BME280;67656;52.074;4.758;2023-04-24T14:23:37;100936.94;;;8.43;100.00
78373;BME280;67656;52.074;4.758;2023-04-24T14:28:37;100936.69;;;9.04;100.00
78373;BME280;67656;52.074;4.758;2023-04-24T14:33:38;100933.06;;;9.10;100.00
78373;BME280;67656;52.074;4.758;2023-04-24T14:38:38;100922.69;;;9.45;100.00
78373;BME280;67656;52.074;4.758;2023-04-24T14:43:38;100917.22;;;9.13;100.00
78373;BME280;67656;52.074;4.758;2023-04-24T14:48:39;100912.66;;;9.21;100.00
78373;BME280;67656;52.074;4.758;2023-04-24T14:53:40;100922.91;;;9.34;100.00
78373;BME280;67656;52.074;4.758;2023-04-24T14:58:40;100928.25;;;9.70;100.00
78373;BME280;67656;52.074;4.758;2023-04-24T15:03:40;100926.41;;;10.48;100.00
78373;BME280;67656;52.074;4.758;2023-04-24T15:08:41;100934.69;;;9.96;100.00
78373;BME280;67656;52.074;4.758;2023-04-24T15:13:41;100929.75;;;9.43;100.00
78373;BME280;67656;52.074;4.758;2023-04-24T15:18:42;100929.66;;;9.47;100.00
78373;BME280;67656;52.074;4.758;2023-04-24T15:23:42;100937.66;;;9.41;100.00
78373;BME280;67656;52.074;4.758;2023-04-24T15:28:42;100953.19;;;9.93;100.00
78373;BME280;67656;52.074;4.758;2023-04-24T15:33:43;100956.63;;;9.59;100.00
78373;BME280;67656;52.074;4.758;2023-04-24T15:38:44;100951.78;;;9.38;100.00
78373;BME280;67656;52.074;4.758;2023-04-24T15:43:44;100953.16;;;9.57;100.00
78373;BME280;67656;52.074;4.758;2023-04-24T15:48:45;100962.69;;;9.62;100.00
78373;BME280;67656;52.074;4.758;2023-04-24T15:53:45;100951.56;;;9.49;100.00
78373;BME280;67656;52.074;4.758;2023-04-24T15:58:45;100955.28;;;9.80;100.00
78373;BME280;67656;52.074;4.758;2023-04-24T16:03:48;100962.56;;;9.68;100.00
78373;BME280;67656;52.074;4.758;2023-04-24T16:08:48;100965.94;;;9.75;100.00
78373;BME280;67656;52.074;4.758;2023-04-24T16:13:49;100951.56;;;9.49;100.00
78373;BME280;67656;52.074;4.758;2023-04-24T16:18:50;100963.75;;;9.11;100.00
78373;BME280;67656;52.074;4.758;2023-04-24T16:23:50;100960.38;;;9.04;100.00
78373;BME280;67656;52.074;4.758;2023-04-24T16:28:50;100960.50;;;8.98;100.00
78373;BME280;67656;52.074;4.758;2023-04-24T16:33:51;100971.19;;;8.89;100.00
78373;BME280;67656;52.074;4.758;2023-04-24T16:38:51;100965.81;;;8.95;100.00
78373;BME280;67656;52.074;4.758;2023-04-24T16:43:51;100974.19;;;8.69;100.00
78373;BME280;67656;52.074;4.758;2023-04-24T16:48:52;100977.81;;;8.63;100.00
78373;BME280;67656;52.074;4.758;2023-04-24T16:53:52;100995.66;;;8.44;100.00
78373;BME280;67656;52.074;4.758;2023-04-24T16:58:52;100990.34;;;8.49;100.00
78373;BME280;67656;52.074;4.758;2023-04-24T17:03:53;100997.53;;;8.36;100.00
78373;BME280;67656;52.074;4.758;2023-04-24T17:08:53;101002.72;;;8.39;100.00
78373;BME280;67656;52.074;4.758;2023-04-24T17:13:53;101012.59;;;8.26;100.00
78373;BME280;67656;52.074;4.758;2023-04-24T17:18:54;101009.88;;;8.30;100.00
78373;BME280;67656;52.074;4.758;2023-04-24T17:23:54;101010.84;;;8.25;100.00
78373;BME280;67656;52.074;4.758;2023-04-24T17:28:54;101007.47;;;8.17;100.00
78373;BME280;67656;52.074;4.758;2023-04-24T17:33:56;101007.75;;;7.99;100.00
78373;BME280;67656;52.074;4.758;2023-04-24T17:38:56;101012.06;;;8.02;100.00
78373;BME280;67656;52.074;4.758;2023-04-24T17:43:56;101006.19;;;7.86;100.00
78373;BME280;67656;52.074;4.758;2023-04-24T17:48:57;101010.63;;;7.81;100.00
78373;BME280;67656;52.074;4.758;2023-04-24T17:53:57;101014.16;;;7.78;100.00
78373;BME280;67656;52.074;4.758;2023-04-24T17:58:57;101022.91;;;7.79;100.00
78373;BME280;67656;52.074;4.758;2023-04-24T18:03:58;101016.88;;;7.71;100.00
78373;BME280;67656;52.074;4.758;2023-04-24T18:08:58;101023.94;;;7.65;100.00
78373;BME280;67656;52.074;4.758;2023-04-24T18:13:58;101029.31;;;7.59;100.00
78373;BME280;67656;52.074;4.758;2023-04-24T18:18:58;101028.72;;;7.35;100.00
78373;BME280;67656;52.074;4.758;2023-04-24T18:23:59;101027.91;;;7.29;100.00
78373;BME280;67656;52.074;4.758;2023-04-24T18:28:59;101027.03;;;7.28;100.00
78373;BME280;67656;52.074;4.758;2023-04-24T18:33:59;101038.50;;;7.21;100.00
78373;BME280;67656;52.074;4.758;2023-04-24T18:39:00;101048.16;;;7.17;100.00
78373;BME280;67656;52.074;4.758;2023-04-24T18:44:00;101057.78;;;7.17;100.00
78373;BME280;67656;52.074;4.758;2023-04-24T18:49:02;101064.78;;;7.15;100.00
78373;BME280;67656;52.074;4.758;2023-04-24T18:54:02;101074.50;;;7.06;100.00
78373;BME280;67656;52.074;4.758;2023-04-24T18:59:03;101072.00;;;6.94;100.00
78373;BME280;67656;52.074;4.758;2023-04-24T19:04:03;101077.41;;;6.75;100.00
78373;BME280;67656;52.074;4.758;2023-04-24T19:09:03;101088.78;;;6.74;100.00
78373;BME280;67656;52.074;4.758;2023-04-24T19:14:04;101095.81;;;6.72;100.00
78373;BME280;67656;52.074;4.758;2023-04-24T19:19:04;101108.03;;;6.73;100.00
78373;BME280;67656;52.074;4.758;2023-04-24T19:24:05;101117.63;;;6.76;100.00
78373;BME280;67656;52.074;4.758;2023-04-24T19:29:05;101116.72;;;6.79;100.00
78373;BME280;67656;52.074;4.758;2023-04-24T19:34:11;101119.50;;;6.60;100.00
78373;BME280;67656;52.074;4.758;2023-04-24T19:39:11;101123.97;;;6.42;100.00
78373;BME280;67656;52.074;4.758;2023-04-24T19:44:11;101137.09;;;6.41;100.00
78373;BME280;67656;52.074;4.758;2023-04-24T19:49:12;101142.31;;;6.44;100.00
78373;BME280;67656;52.074;4.758;2023-04-24T19:54:12;101148.44;;;6.44;100.00
78373;BME280;67656;52.074;4.758;2023-04-24T19:59:12;101150.19;;;6.49;100.00
78373;BME280;67656;52.074;4.758;2023-04-24T20:04:13;101151.00;;;6.51;100.00
78373;BME280;67656;52.074;4.758;2023-04-24T20:09:13;101141.47;;;6.43;100.00
78373;BME280;67656;52.074;4.758;2023-04-24T20:14:13;101152.84;;;6.38;100.00
78373;BME280;67656;52.074;4.758;2023-04-24T20:19:14;101141.47;;;6.37;100.00
78373;BME280;67656;52.074;4.758;2023-04-24T20:24:14;101150.28;;;6.30;100.00
78373;BME280;67656;52.074;4.758;2023-04-24T20:29:15;101145.97;;;6.17;100.00
78373;BME280;67656;52.074;4.758;2023-04-24T20:34:15;101151.25;;;6.09;100.00
78373;BME280;67656;52.074;4.758;2023-04-24T20:39:15;101152.16;;;5.94;100.00
78373;BME280;67656;52.074;4.758;2023-04-24T20:44:16;101151.28;;;5.90;100.00
78373;BME280;67656;52.074;4.758;2023-04-24T20:49:18;101157.44;;;5.78;100.00
78373;BME280;67656;52.074;4.758;2023-04-24T20:54:19;101155.69;;;5.77;100.00
78373;BME280;67656;52.074;4.758;2023-04-24T20:59:19;101164.47;;;5.70;100.00
78373;BME280;67656;52.074;4.758;2023-04-24T21:04:20;101164.47;;;5.62;100.00
78373;BME280;67656;52.074;4.758;2023-04-24T21:09:20;101161.84;;;5.61;100.00
78373;BME280;67656;52.074;4.758;2023-04-24T21:14:20;101153.09;;;5.73;100.00
78373;BME280;67656;52.074;4.758;2023-04-24T21:19:21;101144.31;;;5.83;100.00
78373;BME280;67656;52.074;4.758;2023-04-24T21:24:21;101146.09;;;5.79;100.00
78373;BME280;67656;52.074;4.758;2023-04-24T21:29:21;101146.09;;;5.76;100.00
78373;BME280;67656;52.074;4.758;2023-04-24T21:34:22;101145.25;;;5.71;100.00
78373;BME280;67656;52.074;4.758;2023-04-24T21:39:22;101145.25;;;5.62;100.00
78373;BME280;67656;52.074;4.758;2023-04-24T21:44:23;101144.41;;;5.46;100.00
78373;BME280;67656;52.074;4.758;2023-04-24T21:49:23;101147.94;;;5.40;100.00
78373;BME280;67656;52.074;4.758;2023-04-24T21:54:23;101166.25;;;5.28;100.00
78373;BME280;67656;52.074;4.758;2023-04-24T21:59:24;101163.63;;;5.35;100.00
78373;BME280;67656;52.074;4.758;2023-04-24T22:04:25;101162.78;;;5.24;100.00
78373;BME280;67656;52.074;4.758;2023-04-24T22:09:25;101161.91;;;5.20;100.00
78373;BME280;67656;52.074;4.758;2023-04-24T22:14:25;101161.94;;;5.16;100.00
78373;BME280;67656;52.074;4.758;2023-04-24T22:19:26;101169.78;;;5.08;100.00
78373;BME280;67656;52.074;4.758;2023-04-24T22:24:26;101168.00;;;4.88;100.00
78373;BME280;67656;52.074;4.758;2023-04-24T22:29:27;101174.13;;;4.76;100.00
78373;BME280;67656;52.074;4.758;2023-04-24T22:34:27;101166.22;;;4.56;100.00
78373;BME280;67656;52.074;4.758;2023-04-24T22:39:28;101163.56;;;4.41;100.00
78373;BME280;67656;52.074;4.758;2023-04-24T22:44:28;101163.56;;;4.32;100.00
78373;BME280;67656;52.074;4.758;2023-04-24T22:49:28;101164.41;;;4.27;100.00
78373;BME280;67656;52.074;4.758;2023-04-24T22:54:30;101157.44;;;4.25;100.00
78373;BME280;67656;52.074;4.758;2023-04-24T22:59:31;101156.59;;;4.30;100.00
78373;BME280;67656;52.074;4.758;2023-04-24T23:04:31;101156.53;;;4.17;100.00
78373;BME280;67656;52.074;4.758;2023-04-24T23:09:32;101161.75;;;4.13;100.00
78373;BME280;67656;52.074;4.758;2023-04-24T23:14:33;101161.81;;;4.41;100.00
78373;BME280;67656;52.074;4.758;2023-04-24T23:19:33;101172.34;;;4.65;100.00
78373;BME280;67656;52.074;4.758;2023-04-24T23:24:34;101169.75;;;4.83;100.00
78373;BME280;67656;52.074;4.758;2023-04-24T23:29:34;101175.00;;;4.83;100.00
78373;BME280;67656;52.074;4.758;2023-04-24T23:34:34;101173.22;;;4.73;100.00
78373;BME280;67656;52.074;4.758;2023-04-24T23:39:35;101174.97;;;4.74;100.00
78373;BME280;67656;52.074;4.758;2023-04-24T23:44:35;101176.72;;;4.78;100.00
78373;BME280;67656;52.074;4.758;2023-04-24T23:49:35;101179.34;;;4.72;100.00
78373;BME280;67656;52.074;4.758;2023-04-24T23:54:36;101181.03;;;4.60;100.00
78373;BME280;67656;52.074;4.758;2023-04-24T23:59:36;101172.31;;;4.48;100.00
